Hamilton, Maryland
Current Conditions -  °F | °C
As of 4:45 PM on Thursday 18 Dec 2014 (Local Time) from KMTN Reporting Station
Broken Clouds Broken Clouds  
Wind Chill: 29°   Ceiling: 3700
Heat Index: 37°   Visibility: 10mi
Dew Point: 27°   Wind: 14mph
Humidity: 65%   Direction: 280°W
Pressure: 30.1"   Gusts: NA
Location:  39.3525°N, 76.5645°W
Report Text: KMTN 182145Z 28012KT 10SM BKN037 03/M03 A3010
Loading
Personal Weather Stations






























Interactive Weather Map New forecast layout! Learn more

10-Day Weather Forecast

Advertisements
Track Severe Weather on mobile